Time;durP1;ratioP1;P1;durP2;ratioP2;P2;SDS_P1;SDS_P2;PMS_P1;PMS_P2;Temp;Humidity;BMP_temperature;BMP_pressure;BME280_temperature;BME280_humidity;BME280_pressure;Samples;Min_cycle;Max_cycle;Signal;HPM_P1;HPM_P2
2022/03/06 00:00:09;;;;;;;25.75;15.35;;;0.80;99.90;;;;;;2061433;28;20019;-71
2022/03/06 00:01:13;;;;;;;23.67;15.13;;;0.80;99.90;;;;;;2064774;28;20028;-69
2022/03/06 00:02:14;;;;;;;24.38;15.48;;;0.80;99.90;;;;;;2073053;28;20533;-72
2022/03/06 00:03:15;;;;;;;27.98;17.42;;;0.80;99.90;;;;;;2072001;28;20030;-71
2022/03/06 00:04:16;;;;;;;25.77;17.00;;;0.80;99.90;;;;;;2064672;28;20031;-70
2022/03/06 00:05:17;;;;;;;26.88;17.17;;;0.90;99.90;;;;;;2066337;28;20423;-71
2022/03/06 00:06:26;;;;;;;26.90;17.00;;;0.90;99.90;;;;;;2064093;28;20041;-71
2022/03/06 00:07:27;;;;;;;23.55;15.32;;;0.90;99.90;;;;;;2064524;28;20034;-70
2022/03/06 00:08:31;;;;;;;25.85;16.15;;;0.80;99.90;;;;;;2064719;28;20025;-69
2022/03/06 00:09:35;;;;;;;25.42;15.77;;;0.80;99.90;;;;;;2056918;28;20066;-71
2022/03/06 00:10:44;;;;;;;25.70;15.98;;;0.80;99.90;;;;;;2063227;28;20510;-68
2022/03/06 00:11:48;;;;;;;25.67;15.63;;;0.80;99.90;;;;;;2057270;28;20470;-68
2022/03/06 00:12:52;;;;;;;23.38;15.23;;;0.80;99.90;;;;;;2063766;28;20466;-69
2022/03/06 00:13:53;;;;;;;24.63;15.60;;;0.80;99.90;;;;;;2058033;28;20062;-68
2022/03/06 00:14:54;;;;;;;27.17;16.88;;;0.80;99.90;;;;;;2050919;28;20015;-67
2022/03/06 00:15:55;;;;;;;28.50;18.42;;;0.80;99.90;;;;;;2056018;28;20030;-70
2022/03/06 00:16:55;;;;;;;29.75;19.05;;;0.80;99.90;;;;;;2065225;28;20042;-69
2022/03/06 00:17:56;;;;;;;32.55;20.38;;;0.80;99.90;;;;;;2064420;28;20038;-70
2022/03/06 00:18:58;;;;;;;33.08;21.05;;;0.80;99.90;;;;;;2064336;28;20022;-70
2022/03/06 00:20:08;;;;;;;33.97;21.50;;;0.80;99.90;;;;;;2064318;28;20074;-70
2022/03/06 00:21:12;;;;;;;34.08;21.20;;;0.80;99.90;;;;;;2056639;28;20034;-68
2022/03/06 00:22:13;;;;;;;34.22;21.95;;;0.80;99.90;;;;;;2063334;28;20036;-68
2022/03/06 00:23:14;;;;;;;35.05;22.73;;;0.80;99.90;;;;;;2065313;28;20050;-68
2022/03/06 00:24:14;;;;;;;34.65;22.88;;;0.80;99.90;;;;;;2063681;28;20461;-68
2022/03/06 00:25:16;;;;;;;32.28;21.85;;;0.80;99.90;;;;;;2063875;28;20022;-69
2022/03/06 00:26:16;;;;;;;37.53;23.27;;;0.80;99.90;;;;;;2065299;28;20038;-68
2022/03/06 00:27:18;;;;;;;37.55;23.00;;;0.80;99.90;;;;;;2063601;28;20064;-67
2022/03/06 00:28:19;;;;;;;36.83;23.55;;;0.80;99.90;;;;;;2063616;28;20027;-67
2022/03/06 00:29:22;;;;;;;35.35;22.85;;;0.80;99.90;;;;;;2064908;28;20517;-68
2022/03/06 00:30:24;;;;;;;35.55;22.48;;;0.80;99.90;;;;;;2062661;28;20038;-70
2022/03/06 00:31:25;;;;;;;32.10;21.23;;;0.80;99.90;;;;;;2063722;28;20022;-69
2022/03/06 00:32:26;;;;;;;33.83;21.20;;;0.80;99.90;;;;;;2064801;28;20034;-71
2022/03/06 00:33:28;;;;;;;31.70;20.80;;;0.80;99.90;;;;;;2063491;28;20042;-69
2022/03/06 00:34:29;;;;;;;33.20;21.27;;;0.80;99.90;;;;;;2055913;28;20030;-69
2022/03/06 00:35:30;;;;;;;32.90;20.90;;;0.80;99.90;;;;;;2064687;28;20030;-67
2022/03/06 00:36:30;;;;;;;34.35;21.27;;;0.80;99.90;;;;;;2068346;28;20037;-70
2022/03/06 00:37:31;;;;;;;32.92;20.38;;;0.80;99.90;;;;;;2072244;28;20030;-69
2022/03/06 00:38:33;;;;;;;33.05;20.45;;;0.80;99.90;;;;;;2064369;28;20034;-66
2022/03/06 00:39:34;;;;;;;31.42;20.63;;;0.80;99.90;;;;;;2063635;28;20040;-69
2022/03/06 00:40:36;;;;;;;32.40;20.20;;;0.70;99.90;;;;;;2055687;28;20039;-68
2022/03/06 00:41:38;;;;;;;33.13;21.17;;;0.80;99.90;;;;;;2048739;28;20823;-69
2022/03/06 00:42:39;;;;;;;31.15;20.85;;;0.80;99.90;;;;;;2055527;28;20496;-70
2022/03/06 00:43:43;;;;;;;33.25;21.83;;;0.80;99.90;;;;;;2064410;28;20217;-67
2022/03/06 00:44:46;;;;;;;33.92;22.05;;;0.70;99.90;;;;;;2055074;28;20130;-69
2022/03/06 00:45:47;;;;;;;35.75;22.52;;;0.80;99.90;;;;;;2048045;28;20034;-70
2022/03/06 00:46:48;;;;;;;33.55;21.48;;;0.80;99.90;;;;;;2056961;28;20147;-71
2022/03/06 00:47:49;;;;;;;34.63;20.92;;;0.80;99.90;;;;;;2055326;28;20373;-69
2022/03/06 00:48:50;;;;;;;36.25;21.98;;;0.80;99.90;;;;;;2063252;28;20053;-70
2022/03/06 00:49:51;;;;;;;34.40;21.45;;;0.80;99.90;;;;;;2065927;28;20037;-69
2022/03/06 00:50:52;;;;;;;33.88;21.35;;;0.80;99.90;;;;;;2063378;28;20585;-69
2022/03/06 00:51:55;;;;;;;34.63;21.98;;;0.80;99.90;;;;;;2063380;28;20452;-69
2022/03/06 00:52:57;;;;;;;33.17;22.40;;;0.80;99.90;;;;;;2060691;28;20112;-68
2022/03/06 00:53:58;;;;;;;35.30;22.95;;;0.80;99.90;;;;;;2064080;28;20085;-70
2022/03/06 00:54:59;;;;;;;36.85;23.85;;;0.80;99.90;;;;;;2063763;28;20124;-71
2022/03/06 00:55:59;;;;;;;35.85;24.02;;;0.80;99.90;;;;;;2065074;28;20018;-73
2022/03/06 00:57:00;;;;;;;39.63;25.23;;;0.80;99.90;;;;;;2063881;28;20045;-72
2022/03/06 00:58:05;;;;;;;40.88;25.25;;;0.80;99.90;;;;;;2064322;28;20022;-70
2022/03/06 00:59:06;;;;;;;37.65;25.17;;;0.90;99.90;;;;;;2065141;28;20026;-71
2022/03/06 01:00:07;;;;;;;39.75;24.50;;;0.90;99.90;;;;;;2062541;28;20034;-72
2022/03/06 01:01:08;;;;;;;39.90;25.55;;;0.80;99.90;;;;;;2071304;28;20017;-71
2022/03/06 01:02:10;;;;;;;41.15;25.65;;;0.90;99.90;;;;;;2063076;28;20115;-72
2022/03/06 01:03:16;;;;;;;37.22;24.30;;;0.90;99.90;;;;;;2063418;28;20551;-72
2022/03/06 01:04:16;;;;;;;37.75;24.05;;;0.90;99.90;;;;;;2063899;28;20726;-70
2022/03/06 01:05:17;;;;;;;38.60;24.67;;;0.80;99.90;;;;;;2063930;28;20050;-72
2022/03/06 01:06:17;;;;;;;37.88;24.85;;;0.80;99.90;;;;;;2063726;28;20026;-70
2022/03/06 01:07:18;;;;;;;35.97;24.25;;;0.80;99.90;;;;;;2063675;28;20030;-72
2022/03/06 01:08:18;;;;;;;38.40;24.45;;;0.80;99.90;;;;;;2063738;28;20057;-72
2022/03/06 01:09:19;;;;;;;37.53;24.83;;;0.80;99.90;;;;;;2063467;28;20030;-71
2022/03/06 01:10:20;;;;;;;38.83;24.27;;;0.80;99.90;;;;;;2062670;28;20417;-71
2022/03/06 01:11:20;;;;;;;37.63;24.42;;;0.80;99.90;;;;;;2063028;28;20081;-71
2022/03/06 01:12:21;;;;;;;39.05;24.50;;;0.80;99.90;;;;;;2054874;28;20031;-72
2022/03/06 01:13:22;;;;;;;38.25;24.33;;;0.80;99.90;;;;;;2055100;28;20023;-71
2022/03/06 01:14:23;;;;;;;36.08;23.75;;;0.80;99.90;;;;;;2063107;28;20135;-72
2022/03/06 01:15:24;;;;;;;37.65;23.73;;;0.80;99.90;;;;;;2071075;28;20125;-71
2022/03/06 01:16:25;;;;;;;37.35;23.65;;;0.80;99.90;;;;;;2071255;28;20514;-71
2022/03/06 01:17:25;;;;;;;37.30;23.75;;;0.80;99.90;;;;;;2062934;28;20030;-70
2022/03/06 01:18:26;;;;;;;36.05;23.23;;;0.80;99.90;;;;;;2062930;28;20496;-71
2022/03/06 01:19:27;;;;;;;35.03;22.92;;;0.80;99.90;;;;;;2063721;28;20034;-71
2022/03/06 01:20:27;;;;;;;37.70;23.45;;;0.80;99.90;;;;;;2063015;28;20029;-71
2022/03/06 01:21:28;;;;;;;33.75;22.27;;;0.80;99.90;;;;;;2063519;28;20038;-71
2022/03/06 01:22:28;;;;;;;34.05;22.48;;;0.80;99.90;;;;;;2063592;28;20032;-72
2022/03/06 01:23:29;;;;;;;33.65;21.73;;;0.80;99.90;;;;;;2063676;28;20058;-72
2022/03/06 01:24:30;;;;;;;32.80;21.48;;;0.80;99.90;;;;;;2062934;28;20038;-71
2022/03/06 01:25:30;;;;;;;33.80;21.90;;;0.80;99.90;;;;;;2062872;28;20026;-70
2022/03/06 01:26:31;;;;;;;32.63;20.98;;;0.80;99.90;;;;;;2063727;28;20701;-70
2022/03/06 01:27:32;;;;;;;35.60;20.50;;;0.80;99.90;;;;;;2063244;28;20587;-72
2022/03/06 01:28:32;;;;;;;31.15;20.27;;;0.80;99.90;;;;;;2063206;28;20038;-73
2022/03/06 01:29:33;;;;;;;30.83;20.30;;;0.80;99.90;;;;;;2063594;28;20394;-72
2022/03/06 01:30:34;;;;;;;31.55;20.73;;;0.80;99.90;;;;;;2062939;28;20026;-72
2022/03/06 01:31:34;;;;;;;32.88;20.77;;;0.80;99.90;;;;;;2063874;28;20425;-70
2022/03/06 01:32:36;;;;;;;33.33;21.13;;;0.80;99.90;;;;;;2063681;28;20057;-72
2022/03/06 01:33:37;;;;;;;33.10;21.95;;;0.80;99.90;;;;;;2063691;28;20038;-71
2022/03/06 01:34:37;;;;;;;34.33;21.52;;;0.80;99.90;;;;;;2063764;28;20413;-72
2022/03/06 01:35:38;;;;;;;34.63;21.02;;;0.80;99.90;;;;;;2071094;28;20037;-71
2022/03/06 01:36:39;;;;;;;34.50;21.45;;;0.80;99.90;;;;;;2071344;28;20114;-70
2022/03/06 01:37:39;;;;;;;33.17;20.85;;;0.80;99.90;;;;;;2063688;28;20026;-72
2022/03/06 01:38:40;;;;;;;31.65;20.50;;;0.80;99.90;;;;;;2063566;28;20026;-70
2022/03/06 01:39:41;;;;;;;31.00;20.58;;;0.80;99.90;;;;;;2063013;28;20720;-71
2022/03/06 01:40:42;;;;;;;33.35;20.65;;;0.80;99.90;;;;;;2062278;28;20041;-71
2022/03/06 01:41:42;;;;;;;31.25;20.20;;;0.80;99.90;;;;;;2062981;28;20112;-71
2022/03/06 01:42:45;;;;;;;30.55;19.98;;;0.80;99.90;;;;;;2055049;28;20080;-71
2022/03/06 01:43:46;;;;;;;32.63;19.77;;;0.80;99.90;;;;;;2063058;28;20070;-71
2022/03/06 01:44:50;;;;;;;30.50;20.45;;;0.80;99.90;;;;;;2063893;28;20030;-70
2022/03/06 01:45:50;;;;;;;31.17;19.63;;;0.80;99.90;;;;;;2063938;28;20413;-71
2022/03/06 01:46:51;;;;;;;30.17;19.92;;;0.80;99.90;;;;;;2063791;28;20023;-71
2022/03/06 01:47:54;;;;;;;31.00;19.20;;;0.80;99.90;;;;;;2063699;28;20525;-71
2022/03/06 01:48:55;;;;;;;29.70;19.38;;;0.80;99.90;;;;;;2063856;28;20045;-71
2022/03/06 01:49:55;;;;;;;30.63;20.00;;;0.80;99.90;;;;;;2062704;28;20125;-72
2022/03/06 01:50:56;;;;;;;29.92;18.98;;;0.80;99.90;;;;;;2062043;28;20030;-72
2022/03/06 01:51:56;;;;;;;32.83;19.20;;;0.80;99.90;;;;;;2054751;28;20039;-73
2022/03/06 01:52:59;;;;;;;29.55;19.10;;;0.80;99.90;;;;;;2054687;28;20398;-73
2022/03/06 01:54:00;;;;;;;28.95;18.52;;;0.80;99.90;;;;;;2062788;28;20129;-72
2022/03/06 01:55:00;;;;;;;30.25;18.50;;;0.80;99.90;;;;;;2062789;28;20022;-71
2022/03/06 01:56:01;;;;;;;29.60;19.33;;;0.80;99.90;;;;;;2062658;28;20359;-72
2022/03/06 01:57:02;;;;;;;30.90;20.08;;;0.80;99.90;;;;;;2054836;28;20031;-71
2022/03/06 01:58:05;;;;;;;32.72;20.90;;;0.80;99.90;;;;;;2062721;28;20066;-71
2022/03/06 01:59:06;;;;;;;32.75;20.92;;;0.80;99.90;;;;;;2063138;28;20171;-71
2022/03/06 02:00:12;;;;;;;33.45;21.05;;;0.80;99.90;;;;;;2062508;28;20038;-71
2022/03/06 02:01:15;;;;;;;34.80;20.85;;;0.80;99.90;;;;;;2062770;28;20118;-72
2022/03/06 02:02:16;;;;;;;32.20;21.02;;;0.80;99.90;;;;;;2062716;28;20194;-70
2022/03/06 02:03:18;;;;;;;33.55;20.98;;;0.80;99.90;;;;;;2063413;28;20037;-73
2022/03/06 02:04:18;;;;;;;31.65;20.15;;;0.80;99.90;;;;;;2063512;28;20031;-72
2022/03/06 02:05:19;;;;;;;31.08;19.85;;;0.80;99.90;;;;;;2062665;28;20045;-72
2022/03/06 02:06:22;;;;;;;30.98;19.77;;;0.80;99.90;;;;;;2062622;28;20030;-72
2022/03/06 02:07:22;;;;;;;32.40;20.73;;;0.80;99.90;;;;;;2070599;28;20030;-73
2022/03/06 02:08:23;;;;;;;31.50;20.20;;;0.80;99.90;;;;;;2062709;28;20042;-72
2022/03/06 02:09:23;;;;;;;31.80;19.75;;;0.80;99.90;;;;;;2064093;28;20041;-73
2022/03/06 02:10:24;;;;;;;30.70;19.67;;;0.80;99.90;;;;;;2064187;28;20031;-72
2022/03/06 02:11:26;;;;;;;30.58;20.02;;;0.80;99.90;;;;;;2064715;28;20034;-71
2022/03/06 02:12:27;;;;;;;29.73;19.42;;;0.80;99.90;;;;;;2064743;28;20030;-72
2022/03/06 02:13:28;;;;;;;31.08;19.48;;;0.80;99.90;;;;;;2064937;28;20062;-72
2022/03/06 02:14:28;;;;;;;29.13;18.85;;;0.80;99.90;;;;;;2064021;28;20038;-72
2022/03/06 02:15:29;;;;;;;29.58;19.00;;;0.80;99.90;;;;;;2064154;28;20049;-72
2022/03/06 02:16:32;;;;;;;29.67;19.20;;;0.80;99.90;;;;;;2064718;28;20030;-72
2022/03/06 02:17:37;;;;;;;28.52;18.38;;;0.80;99.90;;;;;;2064634;28;20044;-72
2022/03/06 02:18:38;;;;;;;28.90;18.88;;;0.80;99.90;;;;;;2064489;28;20057;-74
2022/03/06 02:19:59;;;;;;;32.17;20.58;;;0.80;99.90;;;;;;2064495;28;20038;-72
2022/03/06 02:21:12;;;;;;;32.70;20.67;;;0.80;99.90;;;;;;2064877;28;20022;-72
2022/03/06 02:22:12;;;;;;;32.00;20.17;;;0.80;99.90;;;;;;2064713;28;20031;-71
2022/03/06 02:23:13;;;;;;;32.28;20.77;;;0.80;99.90;;;;;;2064237;28;20033;-71
2022/03/06 02:24:14;;;;;;;33.17;19.90;;;0.80;99.90;;;;;;2064170;28;20027;-72
2022/03/06 02:25:18;;;;;;;32.35;19.88;;;0.80;99.90;;;;;;2064893;28;20069;-72
2022/03/06 02:26:19;;;;;;;29.63;19.48;;;0.80;99.90;;;;;;2064753;28;20046;-71
2022/03/06 02:27:21;;;;;;;29.40;19.33;;;0.80;99.90;;;;;;2064909;28;20026;-73
2022/03/06 02:28:22;;;;;;;28.80;18.98;;;0.80;99.90;;;;;;2064619;28;20058;-69
2022/03/06 02:29:22;;;;;;;30.80;18.80;;;0.80;99.90;;;;;;2064680;28;20324;-74
2022/03/06 02:30:26;;;;;;;30.42;18.77;;;0.80;99.90;;;;;;2063115;28;20105;-72
2022/03/06 02:31:26;;;;;;;29.77;18.70;;;0.80;99.90;;;;;;2064206;28;20034;-72
2022/03/06 02:32:27;;;;;;;27.67;18.23;;;0.80;99.90;;;;;;2064616;28;20121;-69
2022/03/06 02:33:27;;;;;;;29.02;18.52;;;0.80;99.90;;;;;;2056176;28;20039;-70
2022/03/06 02:34:28;;;;;;;29.38;17.70;;;0.80;99.90;;;;;;2056404;28;20114;-72
2022/03/06 02:35:30;;;;;;;28.50;18.70;;;0.80;99.90;;;;;;2064376;28;20104;-70
2022/03/06 02:36:30;;;;;;;28.65;18.33;;;0.80;99.90;;;;;;2064188;28;20022;-72
2022/03/06 02:37:31;;;;;;;28.38;18.05;;;0.80;99.90;;;;;;2064174;28;20426;-73
2022/03/06 02:38:31;;;;;;;25.05;17.33;;;0.80;99.90;;;;;;2064173;28;20034;-71
2022/03/06 02:39:32;;;;;;;26.67;17.02;;;0.80;99.90;;;;;;2064123;28;20058;-73
2022/03/06 02:40:39;;;;;;;29.25;17.77;;;0.80;99.90;;;;;;2063434;28;20530;-71
2022/03/06 02:41:40;;;;;;;25.55;16.67;;;0.80;99.90;;;;;;2064841;28;20539;-70
2022/03/06 02:42:43;;;;;;;26.75;17.38;;;0.80;99.90;;;;;;2064877;28;20038;-73
2022/03/06 02:43:43;;;;;;;25.30;16.70;;;0.80;99.90;;;;;;2064727;28;20026;-71
2022/03/06 02:44:44;;;;;;;26.13;16.70;;;0.80;99.90;;;;;;2064759;28;20124;-72
2022/03/06 02:45:45;;;;;;;26.95;17.02;;;0.80;99.90;;;;;;2064732;28;20053;-73
2022/03/06 02:46:46;;;;;;;29.17;17.25;;;0.80;99.90;;;;;;2064810;28;20030;-72
2022/03/06 02:47:47;;;;;;;27.63;17.55;;;0.80;99.90;;;;;;2064562;28;20034;-71
2022/03/06 02:48:48;;;;;;;26.75;17.27;;;0.80;99.90;;;;;;2064710;28;20036;-72
2022/03/06 02:49:49;;;;;;;26.73;16.98;;;0.70;99.90;;;;;;2064487;28;20027;-71
2022/03/06 02:50:51;;;;;;;24.85;16.13;;;0.70;99.90;;;;;;2063300;28;20085;-72
2022/03/06 02:51:52;;;;;;;24.65;16.25;;;0.70;99.90;;;;;;2056272;28;20026;-70
2022/03/06 02:52:53;;;;;;;24.67;16.20;;;0.70;99.90;;;;;;2063935;28;20034;-70
2022/03/06 02:53:54;;;;;;;26.65;17.20;;;0.70;99.90;;;;;;2064875;28;20027;-73
2022/03/06 02:54:55;;;;;;;26.20;16.35;;;0.80;99.90;;;;;;2064779;28;20125;-72
2022/03/06 02:55:55;;;;;;;24.58;15.98;;;0.70;99.90;;;;;;2064057;28;20602;-72
2022/03/06 02:56:56;;;;;;;25.42;16.52;;;0.70;99.90;;;;;;2056200;28;20502;-71
2022/03/06 02:57:57;;;;;;;26.75;17.35;;;0.70;99.90;;;;;;2064031;28;20430;-70
2022/03/06 02:58:58;;;;;;;27.00;18.10;;;0.70;99.90;;;;;;2064024;28;20030;-71
2022/03/06 02:59:59;;;;;;;28.88;18.05;;;0.70;99.90;;;;;;2063533;28;20058;-71
2022/03/06 03:00:59;;;;;;;29.08;18.67;;;0.70;99.90;;;;;;2064029;28;20026;-72
2022/03/06 03:02:00;;;;;;;27.25;17.55;;;0.80;99.90;;;;;;2064033;28;20579;-71
2022/03/06 03:03:01;;;;;;;27.02;17.42;;;0.70;99.90;;;;;;2064519;28;20026;-72
2022/03/06 03:04:02;;;;;;;27.08;17.20;;;0.80;99.90;;;;;;2063927;28;20081;-71
2022/03/06 03:05:05;;;;;;;26.50;17.63;;;0.80;99.90;;;;;;2055795;28;20205;-70
2022/03/06 03:06:09;;;;;;;28.45;18.58;;;0.80;99.90;;;;;;2064032;28;20054;-73
2022/03/06 03:07:10;;;;;;;26.52;17.65;;;0.70;99.90;;;;;;2064320;28;20141;-72
2022/03/06 03:08:10;;;;;;;23.83;16.88;;;0.80;99.90;;;;;;2064466;28;20034;-72
2022/03/06 03:09:13;;;;;;;28.88;17.52;;;0.80;99.90;;;;;;2064499;28;20034;-72
2022/03/06 03:10:16;;;;;;;25.45;17.42;;;0.70;99.90;;;;;;2063574;28;20034;-72
2022/03/06 03:11:17;;;;;;;27.05;16.92;;;0.80;99.90;;;;;;2064597;28;20506;-70
2022/03/06 03:12:17;;;;;;;23.90;16.00;;;0.70;99.90;;;;;;2064267;28;20065;-69
2022/03/06 03:13:18;;;;;;;23.88;15.75;;;0.70;99.90;;;;;;2064301;28;20038;-70
2022/03/06 03:14:19;;;;;;;24.95;15.95;;;0.70;99.90;;;;;;2064445;28;20041;-70
2022/03/06 03:15:19;;;;;;;24.35;15.32;;;0.70;99.90;;;;;;2063549;28;20029;-70
2022/03/06 03:16:20;;;;;;;23.20;15.07;;;0.70;99.90;;;;;;2055786;28;20023;-70
2022/03/06 03:17:21;;;;;;;24.30;15.23;;;0.70;99.90;;;;;;2055731;28;20042;-71
2022/03/06 03:18:21;;;;;;;24.30;15.35;;;0.70;99.90;;;;;;2055710;28;20031;-71
2022/03/06 03:19:22;;;;;;;25.95;15.70;;;0.70;99.90;;;;;;2063404;28;20085;-69
2022/03/06 03:20:22;;;;;;;23.83;15.45;;;0.70;99.90;;;;;;2062996;28;20038;-70
2022/03/06 03:21:23;;;;;;;24.02;15.43;;;0.70;99.90;;;;;;2063691;28;20026;-71
2022/03/06 03:22:24;;;;;;;23.65;15.43;;;0.70;99.90;;;;;;2063702;28;20030;-72
2022/03/06 03:23:24;;;;;;;24.42;15.55;;;0.70;99.90;;;;;;2064251;28;20022;-73
2022/03/06 03:24:26;;;;;;;25.42;16.17;;;0.70;99.90;;;;;;2064273;28;20824;-71
2022/03/06 03:25:26;;;;;;;24.80;16.27;;;0.70;99.90;;;;;;2064225;28;20041;-71
2022/03/06 03:26:27;;;;;;;26.48;16.55;;;0.70;99.90;;;;;;2064295;28;20066;-72
2022/03/06 03:27:28;;;;;;;25.90;16.48;;;0.70;99.90;;;;;;2064208;28;20027;-72
2022/03/06 03:28:28;;;;;;;25.02;16.10;;;0.70;99.90;;;;;;2064216;28;20027;-72
2022/03/06 03:29:29;;;;;;;26.42;17.13;;;0.70;99.90;;;;;;2063655;28;20101;-71
2022/03/06 03:30:29;;;;;;;28.27;17.50;;;0.70;99.90;;;;;;2062800;28;20022;-72
2022/03/06 03:31:30;;;;;;;25.25;16.20;;;0.70;99.90;;;;;;2063545;28;20042;-71
2022/03/06 03:32:31;;;;;;;25.08;15.15;;;0.70;99.90;;;;;;2063647;28;20041;-71
2022/03/06 03:33:32;;;;;;;23.13;15.55;;;0.70;99.90;;;;;;2064063;28;20462;-71
2022/03/06 03:34:32;;;;;;;23.95;15.20;;;0.70;99.90;;;;;;2064582;28;20118;-71
2022/03/06 03:35:33;;;;;;;26.98;16.50;;;0.70;99.90;;;;;;2064192;28;20080;-72
2022/03/06 03:36:34;;;;;;;31.05;17.77;;;0.70;99.90;;;;;;2064351;28;20441;-72
2022/03/06 03:37:35;;;;;;;30.17;17.90;;;0.80;99.90;;;;;;2064401;28;20045;-71
2022/03/06 03:38:38;;;;;;;30.48;17.33;;;0.70;99.90;;;;;;2064371;28;20081;-71
2022/03/06 03:39:38;;;;;;;24.55;16.52;;;0.70;99.90;;;;;;2064230;28;20052;-71
2022/03/06 03:40:39;;;;;;;30.67;17.85;;;0.70;99.90;;;;;;2063421;28;20076;-72
2022/03/06 03:41:40;;;;;;;29.48;16.75;;;0.70;99.90;;;;;;2064276;28;20023;-72
2022/03/06 03:42:40;;;;;;;29.75;17.35;;;0.70;99.90;;;;;;2064676;28;20528;-72
2022/03/06 03:43:41;;;;;;;28.77;17.15;;;0.70;99.90;;;;;;2065386;28;20544;-71
2022/03/06 03:44:42;;;;;;;30.85;17.60;;;0.70;99.90;;;;;;2064658;28;20234;-72
2022/03/06 03:45:42;;;;;;;28.27;17.25;;;0.70;99.90;;;;;;2064656;28;20060;-72
2022/03/06 03:46:43;;;;;;;30.05;17.38;;;0.70;99.90;;;;;;2065607;28;20044;-71
2022/03/06 03:47:44;;;;;;;28.27;16.55;;;0.70;99.90;;;;;;2065527;28;20057;-70
2022/03/06 03:48:45;;;;;;;28.83;17.27;;;0.70;99.90;;;;;;2065822;28;20030;-71
2022/03/06 03:49:46;;;;;;;27.58;16.33;;;0.60;99.90;;;;;;2065677;28;20030;-71
2022/03/06 03:50:46;;;;;;;28.50;16.73;;;0.70;99.90;;;;;;2064249;28;20046;-73
2022/03/06 03:51:47;;;;;;;29.38;16.50;;;0.60;99.90;;;;;;2065107;28;20035;-72
2022/03/06 03:52:47;;;;;;;27.52;16.42;;;0.60;99.90;;;;;;2065919;28;20022;-72
2022/03/06 03:53:48;;;;;;;27.63;16.27;;;0.70;99.90;;;;;;2065550;28;20046;-70
2022/03/06 03:54:49;;;;;;;27.15;16.58;;;0.60;99.90;;;;;;2065967;28;20165;-71
2022/03/06 03:55:51;;;;;;;25.67;16.08;;;0.60;99.90;;;;;;2065473;28;20022;-70
2022/03/06 03:56:51;;;;;;;28.45;16.20;;;0.60;99.90;;;;;;2065837;28;20030;-72
2022/03/06 03:57:52;;;;;;;25.13;16.27;;;0.70;99.90;;;;;;2065825;28;20117;-71
2022/03/06 03:58:52;;;;;;;28.13;16.08;;;0.70;99.90;;;;;;2065785;28;20057;-71
2022/03/06 03:59:53;;;;;;;26.70;15.88;;;0.70;99.90;;;;;;2065933;28;20030;-71
2022/03/06 04:00:57;;;;;;;24.98;15.85;;;0.70;99.90;;;;;;2064652;28;20058;-71
2022/03/06 04:01:57;;;;;;;24.80;15.88;;;0.70;99.90;;;;;;2064757;28;20110;-71
2022/03/06 04:02:58;;;;;;;26.48;15.77;;;0.70;99.90;;;;;;2064749;28;20425;-70
2022/03/06 04:03:58;;;;;;;23.70;15.50;;;0.70;99.90;;;;;;2064520;28;20023;-71
2022/03/06 04:04:59;;;;;;;24.83;16.15;;;0.70;99.90;;;;;;2064502;28;20042;-72
2022/03/06 04:06:00;;;;;;;29.98;17.00;;;0.70;99.90;;;;;;2064438;28;20085;-73
2022/03/06 04:07:00;;;;;;;30.85;17.40;;;0.70;99.90;;;;;;2063984;28;20053;-71
2022/03/06 04:08:01;;;;;;;29.33;16.58;;;0.70;99.90;;;;;;2063881;28;20036;-71
2022/03/06 04:09:02;;;;;;;29.35;16.67;;;0.70;99.90;;;;;;2063715;28;20125;-73
2022/03/06 04:10:04;;;;;;;27.52;16.25;;;0.70;99.90;;;;;;2063344;28;20557;-71
2022/03/06 04:11:05;;;;;;;26.42;16.77;;;0.70;99.90;;;;;;2063534;28;20030;-70
2022/03/06 04:12:06;;;;;;;25.13;16.30;;;0.70;99.90;;;;;;2063583;28;20042;-71
2022/03/06 04:13:07;;;;;;;25.75;15.90;;;0.80;99.90;;;;;;2064559;28;20056;-71
2022/03/06 04:14:08;;;;;;;25.52;16.20;;;0.80;99.90;;;;;;2064016;28;20490;-71
2022/03/06 04:15:08;;;;;;;24.52;16.00;;;0.80;99.90;;;;;;2064187;28;20034;-71
2022/03/06 04:16:09;;;;;;;24.92;15.57;;;0.80;99.90;;;;;;2063587;28;20541;-71
2022/03/06 04:17:09;;;;;;;28.98;16.50;;;0.80;99.90;;;;;;2061973;28;20085;-71
2022/03/06 04:18:10;;;;;;;28.92;17.05;;;0.80;99.90;;;;;;2071460;28;20041;-72
2022/03/06 04:19:11;;;;;;;28.52;16.30;;;0.80;99.90;;;;;;2072146;28;20033;-71
2022/03/06 04:20:11;;;;;;;26.00;15.98;;;0.80;99.90;;;;;;2070389;28;20053;-72
2022/03/06 04:21:12;;;;;;;28.70;17.73;;;0.80;99.90;;;;;;2063232;28;20115;-72
2022/03/06 04:22:12;;;;;;;25.10;16.48;;;0.80;99.90;;;;;;2071532;28;20072;-69
2022/03/06 04:23:13;;;;;;;24.27;16.02;;;0.80;99.90;;;;;;2071519;28;20083;-71
2022/03/06 04:24:14;;;;;;;23.63;15.43;;;0.80;99.90;;;;;;2071639;28;20717;-70
2022/03/06 04:25:15;;;;;;;24.13;15.65;;;0.80;99.90;;;;;;2071216;28;20038;-71
2022/03/06 04:26:15;;;;;;;23.92;15.30;;;0.80;99.90;;;;;;2071359;28;20065;-71
2022/03/06 04:27:16;;;;;;;23.02;14.65;;;0.90;99.90;;;;;;2071983;28;20088;-72
2022/03/06 04:28:17;;;;;;;22.33;14.63;;;0.90;99.90;;;;;;2071081;28;20037;-71
2022/03/06 04:29:17;;;;;;;23.63;15.73;;;0.90;99.90;;;;;;2071313;28;20102;-70
2022/03/06 04:30:18;;;;;;;25.23;15.75;;;0.90;99.90;;;;;;2071036;28;20533;-71
2022/03/06 04:31:18;;;;;;;23.27;15.05;;;0.90;99.90;;;;;;2071045;28;20054;-72
2022/03/06 04:32:19;;;;;;;25.02;15.55;;;0.90;99.90;;;;;;2070424;28;20025;-71
2022/03/06 04:33:20;;;;;;;22.33;15.13;;;0.90;99.90;;;;;;2071806;28;20824;-71
2022/03/06 04:34:20;;;;;;;23.10;15.30;;;0.90;99.90;;;;;;2071877;28;20041;-71
2022/03/06 04:35:21;;;;;;;22.65;14.60;;;0.90;99.90;;;;;;2071716;28;20030;-71
2022/03/06 04:36:21;;;;;;;23.15;15.27;;;0.80;99.90;;;;;;2071136;28;20026;-70
2022/03/06 04:37:22;;;;;;;20.35;14.60;;;0.90;99.90;;;;;;2071233;28;20208;-71
2022/03/06 04:38:22;;;;;;;25.13;15.43;;;0.90;99.90;;;;;;2062988;28;20026;-71
2022/03/06 04:39:23;;;;;;;22.08;14.50;;;0.80;99.90;;;;;;2063053;28;20034;-71
2022/03/06 04:40:24;;;;;;;23.42;15.25;;;0.80;99.90;;;;;;2070336;28;20050;-71
2022/03/06 04:41:25;;;;;;;23.83;15.13;;;0.80;99.90;;;;;;2071235;28;20799;-71
2022/03/06 04:42:25;;;;;;;23.38;15.65;;;0.80;99.90;;;;;;2071930;28;20037;-72
2022/03/06 04:43:26;;;;;;;26.70;16.88;;;0.90;99.90;;;;;;2071123;28;20481;-72
2022/03/06 04:44:26;;;;;;;25.58;17.38;;;0.90;99.90;;;;;;2071209;28;20050;-70
2022/03/06 04:45:27;;;;;;;27.65;17.63;;;0.90;99.90;;;;;;2071582;28;20477;-70
2022/03/06 04:46:28;;;;;;;30.15;19.60;;;0.90;99.90;;;;;;2071707;28;20029;-71
2022/03/06 04:47:28;;;;;;;29.20;19.70;;;0.90;99.90;;;;;;2071055;28;20022;-71
2022/03/06 04:48:29;;;;;;;30.83;20.08;;;0.90;99.90;;;;;;2071129;28;20065;-70
2022/03/06 04:49:30;;;;;;;29.65;20.33;;;0.90;99.90;;;;;;2071113;28;20033;-71
2022/03/06 04:50:30;;;;;;;30.50;19.73;;;0.90;99.90;;;;;;2070203;28;20025;-71
2022/03/06 04:51:31;;;;;;;29.15;19.90;;;0.80;99.90;;;;;;2071743;28;20079;-71
2022/03/06 04:52:31;;;;;;;32.45;22.17;;;0.80;99.90;;;;;;2071855;28;20028;-73
2022/03/06 04:53:32;;;;;;;36.20;24.08;;;0.90;99.90;;;;;;2071206;28;20095;-72
2022/03/06 04:54:33;;;;;;;35.63;23.45;;;0.90;99.90;;;;;;2071165;28;20058;-72
2022/03/06 04:55:34;;;;;;;34.55;24.08;;;0.80;99.90;;;;;;2071731;28;20481;-70
2022/03/06 04:56:35;;;;;;;38.22;24.40;;;0.80;99.90;;;;;;2070910;28;20029;-72
2022/03/06 04:57:36;;;;;;;36.13;24.17;;;0.80;99.90;;;;;;2071045;28;20041;-72
2022/03/06 04:58:36;;;;;;;33.92;22.63;;;0.80;99.90;;;;;;2071738;28;20069;-72
2022/03/06 04:59:37;;;;;;;33.70;21.70;;;0.80;99.90;;;;;;2071611;28;20091;-73
2022/03/06 05:00:37;;;;;;;33.22;20.90;;;0.80;99.90;;;;;;2070074;28;20030;-70
2022/03/06 05:01:38;;;;;;;30.70;17.58;;;0.90;99.90;;;;;;2070971;28;20036;-70
2022/03/06 05:02:39;;;;;;;25.15;16.83;;;0.90;99.90;;;;;;2071828;28;20120;-72
2022/03/06 05:03:40;;;;;;;26.17;16.60;;;0.90;99.90;;;;;;2071065;28;20076;-71
2022/03/06 05:04:40;;;;;;;23.92;15.60;;;0.90;99.90;;;;;;2071438;28;20037;-69
2022/03/06 05:05:41;;;;;;;23.00;15.10;;;0.90;99.90;;;;;;2072168;28;20038;-69
2022/03/06 05:06:44;;;;;;;22.70;15.10;;;0.90;99.90;;;;;;2072134;28;20034;-72
2022/03/06 05:07:44;;;;;;;23.60;14.98;;;0.90;99.90;;;;;;2072005;28;20049;-70
2022/03/06 05:08:45;;;;;;;24.75;14.98;;;0.90;99.90;;;;;;2072332;28;20056;-71
2022/03/06 05:09:45;;;;;;;23.80;14.80;;;0.80;99.90;;;;;;2072007;28;20053;-71
2022/03/06 05:10:46;;;;;;;21.13;13.75;;;0.80;99.90;;;;;;2071044;28;20060;-72
2022/03/06 05:11:47;;;;;;;23.02;13.98;;;0.80;99.90;;;;;;2071973;28;20112;-71
2022/03/06 05:12:48;;;;;;;21.70;13.23;;;0.80;99.90;;;;;;2079352;28;20586;-72
2022/03/06 05:13:48;;;;;;;22.58;14.13;;;0.90;99.90;;;;;;2079134;28;20392;-71